Oklahoma City, OK

11:42 PM CDT on August 21, 2014 (GMT -0500)
Maple Ridge | Change Station
CLOSE
Current Station
Personal Weather Station
Location: Newalla, OK
Elevation: 1128 ft
Nearby Weather Stations

Elev 1128 ft 35.34 °N, 97.27 °W | Updated 6 minutes ago

Clear
Clear
80.2 °F
Feels Like 84 °F
N
0.0
Wind Variable Wind from SSW
Gusts 0.0 mph

Today
High -- | Low -- °F
--% Chance of Precip.
Yesterday
High -- | Low -- °F
Precip. -- in
6:53 AM 8:10 PM
Waning Crescent, 10% visible
Pressure 29.93 in
Visibility 10.0 miles
Clouds Clear
Heat Index 84 °F
Dew Point 72 °F
Humidity 76%
Rainfall 0.00 in
Snow Depth Not available.
UV 0 out of 12
Pollen 9.80 out of 12
Ozone Good
PM2.5 Moderate
Flu Activity Not available.
METAR KTIK 220358Z AUTO 16007KT 10SM CLR 29/21 A2996 RMK AO2 SLP135 T02860213 $

More Conditions Fewer Conditions

Pressure 29.93 in
Visibility 10.0 miles
Clouds Clear
Heat Index 84 °F
Dew Point 72 °F
Humidity 76%
Rainfall 0.00 in
Snow Depth Not available.
UV 0 out of 12
Pollen 9.80 out of 12
Ozone Good
PM2.5 Moderate
Flu Activity Not available.
METAR KTIK 220358Z AUTO 16007KT 10SM CLR 29/21 A2996 RMK AO2 SLP135 T02860213 $

More Conditions Fewer Conditions

10-Day Weather Forecast

Almanac

Astronomy

Aug. 21, 2014 Rise Set
Actual Time 6:53 AM CDT 8:10 PM CDT
Civil Twilight 6:26 AM CDT 8:37 PM CDT
Nautical Twilight 5:54 AM CDT 9:08 PM CDT
Astronomical Twilight 5:21 AM CDT 9:41 PM CDT
Moon 3:28 AM CDT (8/21) 5:37 PM CDT (8/21)
Length of Visible Light 14h 10m
Length of Day
13h 17m
Tomorrow will be 2m 2s shorter.
Waning Crescent, 10% of the Moon is Illuminated
Aug 22
Waning Crescent
Aug 25
New
Sep 2
First Quarter
Sep 8
Full
Sep 15
Last Quarter

Yesterday's Extremes

State Highs State Lows

Community

WunderPhotos

Upload Photos

1,746,130 photos uploaded!

Nearby

Air Quality

  Air Quality AQ Index Pollutant
Yesterday Moderate
PM2.5
Yesterday Good
OZONE
Current Moderate
PM2.5
Current Good
OZONE
Thursday Moderate
PM2.5
Thursday Good
OZONE
Friday Moderate
PM2.5
Friday Good
OZONE
Saturday Moderate
PM2.5
Saturday Good
OZONE
Sunday Moderate
PM2.5
Sunday Good
OZONE
Monday Moderate
PM2.5
Monday Good
OZONE

Snow Depth

Station Depth Elevation
No new snow has been reported.

Earthquake Activity

City Distance Mag. Time & Date
Perry, Oklahoma 65 miles 3.0 8:43 AM CDT
2014-08-17
Medford, Oklahoma 107 miles 2.7 2:28 AM CDT
2014-08-17
Medford, Oklahoma 108 miles 3.5 1:31 AM CDT
2014-08-17
Medford, Oklahoma 108 miles 3.8 1:18 AM CDT
2014-08-17
Minimum magnitude displayed is 2.5.

Coastal Water Temperatures

Place Temperature
No Stations Reporting

Nearby Weather Stations